createdAt,value
2017-04-13T00:00:19.532Z,56.13
2017-04-13T00:01:19.447Z,54.71
2017-04-13T00:02:19.441Z,53.57
2017-04-13T00:03:19.456Z,53.38
2017-04-13T00:04:19.415Z,52.91
2017-04-13T00:05:19.405Z,52.53
2017-04-13T00:06:19.391Z,52.24
2017-04-13T00:07:19.448Z,51.48
2017-04-13T00:08:19.374Z,51.39
2017-04-13T00:09:19.361Z,51.01
2017-04-13T00:10:19.033Z,51.29
2017-04-13T00:11:19.024Z,50.81
2017-04-13T00:12:19.326Z,50.43
2017-04-13T00:13:19.318Z,50.53
2017-04-13T00:14:19.305Z,49.58
2017-04-13T00:15:19.294Z,50.05
2017-04-13T00:16:19.285Z,49.49
2017-04-13T00:17:19.274Z,49.01
2017-04-13T00:18:19.263Z,48.44
2017-04-13T00:19:19.253Z,47.68
2017-04-13T00:20:18.926Z,46.35
2017-04-13T00:21:19.231Z,45.5
2017-04-13T00:22:19.220Z,45.78
2017-04-13T00:23:19.209Z,47.3
2017-04-13T00:24:19.207Z,46.35
2017-04-13T00:25:19.187Z,44.93
2017-04-13T00:26:18.861Z,43.88
2017-04-13T00:27:19.165Z,43.6
2017-04-13T00:28:18.838Z,42.83
2017-04-13T00:29:19.145Z,42.74
2017-04-13T00:30:18.818Z,41.98
2017-04-13T00:31:19.119Z,41.79
2017-04-13T00:32:18.799Z,41.98
2017-04-13T00:33:19.100Z,40.75
2017-04-13T00:34:19.090Z,39.89
2017-04-13T00:35:19.079Z,38.37
2017-04-13T00:36:19.064Z,37.99
2017-04-13T00:37:19.060Z,37.71
2017-04-13T00:38:19.047Z,37.13
2017-04-13T00:39:19.034Z,36.19
2017-04-13T00:40:19.028Z,35.9
2017-04-13T00:41:19.013Z,34.48
2017-04-13T00:42:18.999Z,34.19
2017-04-13T00:43:18.990Z,33.91
2017-04-13T00:44:18.666Z,33.53
2017-04-13T00:45:18.968Z,33.44
2017-04-13T00:46:18.957Z,32.96
2017-04-13T00:47:18.947Z,32.48
2017-04-13T00:48:18.935Z,32.29
2017-04-13T00:49:18.923Z,32.77
2017-04-13T00:50:18.910Z,32.57
2017-04-13T00:51:18.586Z,32.29
2017-04-13T00:52:18.891Z,32.2
2017-04-13T00:53:18.885Z,32.1
2017-04-13T00:54:18.871Z,32.29
2017-04-13T00:55:18.859Z,31.44
2017-04-13T00:56:18.851Z,31.63
2017-04-13T00:57:18.890Z,31.44
2017-04-13T00:58:18.826Z,31.15
2017-04-13T00:59:18.814Z,30.68
2017-04-13T01:00:18.802Z,30.4
2017-04-13T01:01:18.791Z,30.3
2017-04-13T01:02:18.778Z,30.49
2017-04-13T01:03:18.768Z,30.77
2017-04-13T01:04:18.760Z,31.53
2017-04-13T01:05:28.407Z,31.53
2017-04-13T01:06:18.734Z,33.05
2017-04-13T01:07:18.725Z,32.96
2017-04-13T01:08:18.711Z,32.77
2017-04-13T01:09:18.701Z,34.09
2017-04-13T01:10:18.686Z,34
2017-04-13T01:11:18.680Z,33.44
2017-04-13T01:12:18.665Z,32.96
2017-04-13T01:13:18.656Z,32.77
2017-04-13T01:14:18.645Z,32.29
2017-04-13T01:15:18.677Z,31.63
2017-04-13T01:16:18.621Z,31.15
2017-04-13T01:17:18.611Z,31.72
2017-04-13T01:18:18.600Z,33.62
2017-04-13T01:19:18.594Z,34.29
2017-04-13T01:20:18.578Z,34.19
2017-04-13T01:21:18.568Z,36.55
2017-04-13T01:22:18.246Z,37.42
2017-04-13T01:23:18.546Z,37.04
2017-04-13T01:24:18.538Z,37.23
2017-04-13T01:25:18.524Z,36.93
2017-04-13T01:26:18.198Z,37.4
2017-04-13T01:27:18.501Z,38.65
2017-04-13T01:28:18.488Z,39.23
2017-04-13T01:29:18.481Z,38.75
2017-04-13T01:30:18.467Z,38.07
2017-04-13T01:31:18.454Z,40.08
2017-04-13T01:32:18.457Z,42.74
2017-04-13T01:33:18.434Z,43.29
2017-04-13T01:34:18.427Z,42.91
2017-04-13T01:35:18.410Z,42.63
2017-04-13T01:36:18.439Z,42.53
2017-04-13T01:37:18.389Z,42.43
2017-04-13T01:38:18.381Z,42.34
2017-04-13T01:39:18.369Z,42.05
2017-04-13T01:40:18.354Z,42.82
2017-04-13T01:41:18.343Z,42.72
2017-04-13T01:42:18.330Z,45.47
2017-04-13T01:43:18.323Z,45.57
2017-04-13T01:44:18.318Z,45.09
2017-04-13T01:45:18.296Z,45
2017-04-13T01:46:18.285Z,45
2017-04-13T01:47:18.276Z,45.57
2017-04-13T01:48:18.267Z,47.66
2017-04-13T01:49:18.250Z,48.7
2017-04-13T01:50:18.289Z,48.8
2017-04-13T01:51:18.230Z,48.61
2017-04-13T01:52:18.217Z,48.7
2017-04-13T01:53:18.207Z,49.46
2017-04-13T01:54:17.882Z,50.22
2017-04-13T01:55:18.185Z,50.98
2017-04-13T01:56:18.173Z,52.22
2017-04-13T01:57:18.161Z,52.31
2017-04-13T01:58:18.156Z,52.78
2017-04-13T01:59:18.138Z,52.97
2017-04-13T02:00:18.129Z,52.87
2017-04-13T02:01:18.117Z,53.45
2017-04-13T02:02:18.105Z,54.87
2017-04-13T02:03:18.092Z,57.06
2017-04-13T02:04:18.130Z,56.1
2017-04-13T02:05:18.072Z,54.58
2017-04-13T02:06:18.060Z,54.58
2017-04-13T02:07:18.046Z,54.87
2017-04-13T02:08:18.036Z,54.11
2017-04-13T02:09:18.024Z,52.69
2017-04-13T02:10:18.014Z,51.45
2017-04-13T02:11:18.007Z,53.16
2017-04-13T02:12:17.679Z,54.78
2017-04-13T02:13:17.979Z,55.73
2017-04-13T02:14:17.967Z,56.96
2017-04-13T02:15:17.958Z,56.49
2017-04-13T02:16:18.064Z,55.25
2017-04-13T02:17:17.933Z,55.82
2017-04-13T02:18:18.043Z,57.81
2017-04-13T02:19:17.909Z,57.62
2017-04-13T02:20:17.900Z,57.24
2017-04-13T02:21:17.888Z,57.34
2017-04-13T02:22:17.876Z,57.06
2017-04-13T02:23:17.864Z,56.68
2017-04-13T02:24:17.858Z,57.34
2017-04-13T02:25:17.844Z,57.53
2017-04-13T02:26:17.832Z,58.39
2017-04-13T02:27:17.821Z,59.05
2017-04-13T02:28:17.812Z,60
2017-04-13T02:29:17.797Z,60
2017-04-13T02:30:17.476Z,60.47
2017-04-13T02:31:17.469Z,63.13
2017-04-13T02:32:17.764Z,63.42
2017-04-13T02:33:17.754Z,62.94
2017-04-13T02:34:17.741Z,62.94
2017-04-13T02:35:17.730Z,64.56
2017-04-13T02:36:17.718Z,65.31
2017-04-13T02:37:17.707Z,65.79
2017-04-13T02:38:17.693Z,65.88
2017-04-13T02:39:17.683Z,65.5
2017-04-13T02:40:17.669Z,65.22
2017-04-13T02:41:17.659Z,64.08
2017-04-13T02:42:17.649Z,64.94
2017-04-13T02:43:17.326Z,64.37
2017-04-13T02:44:17.311Z,64.65
2017-04-13T02:45:17.613Z,63.7
2017-04-13T02:46:17.290Z,63.04
2017-04-13T02:47:17.277Z,63.32
2017-04-13T02:48:17.264Z,64.17
2017-04-13T02:49:17.633Z,64.46
2017-04-13T02:50:17.519Z,64.08
2017-04-13T02:51:17.435Z,64.46
2017-04-13T02:52:17.471Z,64.37
2017-04-13T02:53:17.461Z,65.03
2017-04-13T02:54:17.199Z,65.5
2017-04-13T02:55:17.186Z,67.5
2017-04-13T02:56:17.488Z,67.88
2017-04-13T02:57:17.478Z,67.79
2017-04-13T02:58:17.465Z,67.31
2017-04-13T02:59:17.455Z,66.55
2017-04-13T03:00:17.441Z,67.97
2017-04-13T03:01:17.431Z,66.74
2017-04-13T03:02:17.258Z,66.55
2017-04-13T03:03:17.562Z,67.4
2017-04-13T03:04:17.688Z,67.21
2017-04-13T03:05:17.770Z,66.64
2017-04-13T03:06:17.654Z,66.36
2017-04-13T03:07:17.458Z,65.79
2017-04-13T03:08:17.352Z,65.69
2017-04-13T03:09:17.337Z,65.5
2017-04-13T03:10:17.379Z,65.12
2017-04-13T03:11:17.314Z,65.6
2017-04-13T03:12:17.366Z,65.5
2017-04-13T03:13:17.293Z,65.31
2017-04-13T03:14:17.447Z,65.28
2017-04-13T03:15:16.955Z,64.56
2017-04-13T03:16:17.281Z,63.98
2017-04-13T03:17:17.447Z,63.89
2017-04-13T03:18:17.333Z,64.27
2017-04-13T03:19:17.069Z,64.56
2017-04-13T03:20:17.527Z,64.46
2017-04-13T03:21:17.201Z,64.75
2017-04-13T03:22:17.288Z,64.65
2017-04-13T03:23:17.255Z,65.22
2017-04-13T03:24:17.168Z,64.94
2017-04-13T03:25:17.205Z,64.94
2017-04-13T03:26:17.308Z,65.98
2017-04-13T03:27:17.131Z,65.98
2017-04-13T03:28:17.151Z,66.46
2017-04-13T03:29:17.118Z,66.93
2017-04-13T03:30:17.148Z,67.79
2017-04-13T03:31:17.172Z,68.44
2017-04-13T03:32:16.815Z,68.35
2017-04-13T03:33:17.063Z,68.73
2017-04-13T03:34:17.052Z,68.64
2017-04-13T03:35:17.124Z,69.68
2017-04-13T03:36:17.043Z,70.15
2017-04-13T03:37:17.017Z,70.54
2017-04-13T03:38:17.006Z,70.63
2017-04-13T03:39:17.042Z,70.92
2017-04-13T03:40:17.186Z,71.48
2017-04-13T03:41:16.972Z,72.15
2017-04-13T03:42:17.000Z,71.58
2017-04-13T03:43:16.950Z,70.73
2017-04-13T03:44:16.938Z,72.53
2017-04-13T03:45:16.928Z,72.34
2017-04-13T03:46:16.647Z,70.73
2017-04-13T03:47:16.960Z,70.73
2017-04-13T03:48:16.969Z,71.3
2017-04-13T03:49:16.925Z,70.82
2017-04-13T03:50:16.870Z,69.59
2017-04-13T03:51:16.899Z,70.73
2017-04-13T03:52:16.537Z,70.54
2017-04-13T03:53:16.906Z,72.44
2017-04-13T03:54:16.977Z,72.63
2017-04-13T03:55:16.816Z,73
2017-04-13T03:56:16.799Z,72.25
2017-04-13T03:57:16.787Z,71.48
2017-04-13T03:58:16.968Z,70.54
2017-04-13T03:59:16.833Z,70.15
2017-04-13T04:00:16.757Z,69.21
2017-04-13T04:01:17.043Z,69.87
2017-04-13T04:02:16.488Z,69.87
2017-04-13T04:03:16.719Z,70.06
2017-04-13T04:04:16.741Z,70.06
2017-04-13T04:05:16.756Z,68.64
2017-04-13T04:06:16.727Z,67.5
2017-04-13T04:07:16.673Z,67.21
2017-04-13T04:08:16.783Z,67.5
2017-04-13T04:09:16.709Z,67.4
2017-04-13T04:10:16.348Z,67.59
2017-04-13T04:11:16.636Z,66.74
2017-04-13T04:12:16.343Z,67.69
2017-04-13T04:13:16.625Z,67.21
2017-04-13T04:14:16.603Z,65.88
2017-04-13T04:15:16.266Z,66.55
2017-04-13T04:16:16.570Z,67.21
2017-04-13T04:17:16.676Z,67.02
2017-04-13T04:18:16.704Z,66.74
2017-04-13T04:19:16.534Z,66.74
2017-04-13T04:20:16.674Z,67.12
2017-04-13T04:21:16.207Z,65.98
2017-04-13T04:22:16.506Z,65.88
2017-04-13T04:23:16.491Z,66.64
2017-04-13T04:24:16.478Z,66.36
2017-04-13T04:25:16.466Z,68.92
2017-04-13T04:26:16.483Z,69.3
2017-04-13T04:27:16.468Z,69.02
2017-04-13T04:28:16.476Z,68.92
2017-04-13T04:29:16.570Z,68.16
2017-04-13T04:30:16.416Z,69.4
2017-04-13T04:31:16.400Z,69.49
2017-04-13T04:32:16.389Z,69.87
2017-04-13T04:33:16.375Z,71.01
2017-04-13T04:34:16.368Z,70.82
2017-04-13T04:35:16.356Z,69.87
2017-04-13T04:36:16.344Z,69.87
2017-04-13T04:37:16.331Z,72.06
2017-04-13T04:38:16.321Z,72.25
2017-04-13T04:39:16.310Z,72.25
2017-04-13T04:40:16.296Z,70.82
2017-04-13T04:41:16.287Z,70.63
2017-04-13T04:42:16.278Z,71.2
2017-04-13T04:43:16.263Z,70.54
2017-04-13T04:44:16.251Z,69.3
2017-04-13T04:45:16.241Z,72.25
2017-04-13T04:46:16.230Z,73.19
2017-04-13T04:47:15.906Z,75.38
2017-04-13T04:48:16.206Z,75.76
2017-04-13T04:49:15.880Z,77.18
2017-04-13T04:50:16.186Z,78.99
2017-04-13T04:51:16.173Z,79.55
2017-04-13T04:52:16.162Z,80.98
2017-04-13T04:53:16.149Z,82.03
2017-04-13T04:54:16.141Z,84.72
2017-04-13T04:55:16.130Z,84.87
2017-04-13T04:56:16.115Z,85.35
2017-04-13T04:57:16.106Z,84.44
2017-04-13T04:58:16.093Z,86.72
2017-04-13T04:59:16.081Z,87.82
2017-04-13T05:00:16.074Z,88.1
2017-04-13T05:01:15.748Z,87.19
2017-04-13T05:02:16.048Z,88.86
2017-04-13T05:03:16.036Z,90.42
2017-04-13T05:04:16.030Z,88.01
2017-04-13T05:05:16.013Z,88.15
2017-04-13T05:06:16.005Z,89.09
2017-04-13T05:07:15.994Z,91.09
2017-04-13T05:08:15.668Z,91.47
2017-04-13T05:09:15.976Z,90.99
2017-04-13T05:10:15.961Z,90.9
2017-04-13T05:11:15.946Z,90.8
2017-04-13T05:12:15.938Z,91.56
2017-04-13T05:13:15.930Z,92.61
2017-04-13T05:14:15.913Z,91.19
2017-04-13T05:15:15.905Z,90.99
2017-04-13T05:16:15.891Z,92.99
2017-04-13T05:17:15.879Z,93.75
2017-04-13T05:18:15.869Z,96.41
2017-04-13T05:19:15.859Z,96.79
2017-04-13T05:20:15.536Z,95.65
2017-04-13T05:21:15.836Z,93.75
2017-04-13T05:22:15.827Z,94.79
2017-04-13T05:23:15.817Z,95.27
2017-04-13T05:24:15.806Z,95.27
2017-04-13T05:25:15.794Z,96.98
2017-04-13T05:26:15.780Z,97.36
2017-04-13T05:27:15.771Z,98.12
2017-04-13T05:28:15.445Z,99.99
2017-04-13T05:29:15.749Z,99.99
2017-04-13T05:30:15.736Z,98.88
2017-04-13T05:31:15.416Z,99.99
2017-04-13T05:32:15.714Z,99.73
2017-04-13T05:33:15.704Z,99.99
2017-04-13T05:34:15.694Z,99.99
2017-04-13T05:35:15.681Z,99.99
2017-04-13T05:36:15.670Z,99.99
2017-04-13T05:37:15.663Z,99.99
2017-04-13T05:38:15.650Z,99.99
2017-04-13T05:39:15.637Z,99.99
2017-04-13T05:40:15.632Z,99.99
2017-04-13T05:41:15.613Z,99.99
2017-04-13T05:42:15.602Z,99.99
2017-04-13T05:43:15.589Z,99.99
2017-04-13T05:44:15.581Z,99.99
2017-04-13T05:45:15.570Z,99.99
2017-04-13T05:46:15.559Z,99.99
2017-04-13T05:47:15.548Z,99.99
2017-04-13T05:48:15.536Z,99.99
2017-04-13T05:49:15.524Z,99.99
2017-04-13T05:50:15.520Z,99.99
2017-04-13T05:51:15.502Z,99.99
2017-04-13T05:52:15.493Z,99.99
2017-04-13T05:53:15.483Z,99.99
2017-04-13T05:54:15.474Z,99.99
2017-04-13T05:55:15.461Z,99.99
2017-04-13T05:56:15.450Z,99.99
2017-04-13T05:57:15.436Z,99.99
2017-04-13T05:58:15.428Z,99.99
2017-04-13T05:59:15.417Z,99.99
2017-04-13T06:00:15.405Z,99.99
2017-04-13T06:01:15.393Z,99.99
2017-04-13T06:02:15.066Z,99.99
2017-04-13T06:03:15.058Z,99.99
2017-04-13T06:04:15.358Z,99.99
2017-04-13T06:05:15.349Z,99.99
2017-04-13T06:06:15.027Z,99.99
2017-04-13T06:07:15.329Z,99.99
2017-04-13T06:08:15.315Z,99.99
2017-04-13T06:09:15.304Z,99.99
2017-04-13T06:10:15.298Z,99.99
2017-04-13T06:11:15.285Z,99.99
2017-04-13T06:12:14.957Z,99.99
2017-04-13T06:13:15.268Z,99.99
2017-04-13T06:14:15.250Z,99.99
2017-04-13T06:15:15.236Z,99.99
2017-04-13T06:16:15.229Z,99.99
2017-04-13T06:17:15.216Z,99.99
2017-04-13T06:18:15.210Z,99.99
2017-04-13T06:19:15.195Z,99.99
2017-04-13T06:20:15.185Z,99.99
2017-04-13T06:21:15.174Z,99.99
2017-04-13T06:22:15.164Z,99.99
2017-04-13T06:23:15.152Z,99.99
2017-04-13T06:24:15.142Z,99.99
2017-04-13T06:25:15.128Z,98.69
2017-04-13T06:26:15.118Z,94.23
2017-04-13T06:27:15.106Z,99.99
2017-04-13T06:28:15.099Z,98.64
2017-04-13T06:29:14.770Z,96.26
2017-04-13T06:30:15.072Z,93.99
2017-04-13T06:31:15.062Z,94.79
2017-04-13T06:32:15.051Z,89.95
2017-04-13T06:33:15.039Z,84.17
2017-04-13T06:34:14.713Z,79.9
2017-04-13T06:35:15.016Z,75.24
2017-04-13T06:36:15.003Z,70.31
2017-04-13T06:37:14.990Z,69.55
2017-04-13T06:38:14.981Z,69.52
2017-04-13T06:39:14.970Z,66.39
2017-04-13T06:40:14.641Z,69.52
2017-04-13T06:41:14.944Z,69.42
2017-04-13T06:42:14.933Z,64.68
2017-04-13T06:43:14.918Z,60.22
2017-04-13T06:44:14.907Z,60.03
2017-04-13T06:45:14.895Z,61.46
2017-04-13T06:46:14.568Z,59.84
2017-04-13T06:47:14.868Z,55.48
2017-04-13T06:48:14.861Z,51.59
2017-04-13T06:49:14.848Z,50.64
2017-04-13T06:50:14.516Z,48.75
2017-04-13T06:51:14.819Z,45.62
2017-04-13T06:52:14.805Z,43.53
2017-04-13T06:53:14.480Z,44.38
2017-04-13T06:54:14.783Z,43.15
2017-04-13T06:55:14.769Z,42.77
2017-04-13T06:56:14.755Z,42.58
2017-04-13T06:57:14.747Z,41.25
2017-04-13T06:58:14.418Z,42.01
2017-04-13T06:59:14.718Z,42.68
2017-04-13T07:00:14.719Z,43.53
2017-04-13T07:01:14.692Z,42.3
2017-04-13T07:02:14.678Z,40.78
2017-04-13T07:03:14.667Z,39.73
2017-04-13T07:04:14.652Z,39.54
2017-04-13T07:05:14.656Z,38.33
2017-04-13T07:06:14.629Z,37.93
2017-04-13T07:07:14.617Z,40.7
2017-04-13T07:08:14.604Z,42.77
2017-04-13T07:09:14.591Z,42.2
2017-04-13T07:10:14.575Z,42.58
2017-04-13T07:11:14.613Z,41.75
2017-04-13T07:12:14.556Z,42.79
2017-04-13T07:13:14.539Z,42.79
2017-04-13T07:14:14.214Z,42.79
2017-04-13T07:15:14.521Z,42.6
2017-04-13T07:16:14.503Z,42.2
2017-04-13T07:17:14.491Z,42.11
2017-04-13T07:18:14.476Z,42.3
2017-04-13T07:19:14.466Z,43.08
2017-04-13T07:20:14.453Z,49.15
2017-04-13T07:21:14.439Z,45.71
2017-04-13T07:22:14.427Z,43.62
2017-04-13T07:23:14.413Z,41.46
2017-04-13T07:24:14.404Z,39.36
2017-04-13T07:25:14.395Z,39.18
2017-04-13T07:26:14.377Z,37.84
2017-04-13T07:27:14.412Z,37.95
2017-04-13T07:28:14.039Z,37.1
2017-04-13T07:29:14.340Z,36.15
2017-04-13T07:30:14.011Z,34.63
2017-04-13T07:31:14.314Z,34.16
2017-04-13T07:32:14.303Z,34.92
2017-04-13T07:33:14.289Z,37.48
2017-04-13T07:34:13.967Z,38.9
2017-04-13T07:35:14.266Z,41.94
2017-04-13T07:36:14.257Z,42.89
2017-04-13T07:37:14.241Z,42.79
2017-04-13T07:38:14.226Z,42.89
2017-04-13T07:39:13.901Z,44.88
2017-04-13T07:40:14.205Z,44.69
2017-04-13T07:41:14.193Z,43.46
2017-04-13T07:42:14.181Z,44.5
2017-04-13T07:43:14.166Z,44.21
2017-04-13T07:44:14.155Z,45.85
2017-04-13T07:45:14.141Z,47.73
2017-04-13T07:46:14.132Z,45.66
2017-04-13T07:47:14.121Z,47.66
2017-04-13T07:48:14.110Z,50.41
2017-04-13T07:49:14.097Z,48.13
2017-04-13T07:50:14.083Z,48.8
2017-04-13T07:51:14.070Z,55.73
2017-04-13T07:52:14.060Z,56.58
2017-04-13T07:53:14.046Z,60.47
2017-04-13T07:54:14.037Z,63.23
2017-04-13T07:55:14.023Z,66.27
2017-04-13T07:56:13.700Z,63.04
2017-04-13T07:57:14.004Z,60.28
2017-04-13T07:58:13.989Z,70.15
2017-04-13T07:59:13.976Z,71.96
2017-04-13T08:00:13.651Z,68.54
2017-04-13T08:01:13.637Z,74.24
2017-04-13T08:02:13.946Z,72.25
2017-04-13T08:03:13.931Z,77.98
2017-04-13T08:04:13.920Z,76.08
2017-04-13T08:05:13.906Z,81.97
2017-04-13T08:06:13.896Z,79.5
2017-04-13T08:07:13.884Z,78.17
2017-04-13T08:08:13.561Z,77.51
2017-04-13T08:09:13.862Z,76.46
2017-04-13T08:10:13.852Z,74.66
2017-04-13T08:11:13.526Z,81.73
2017-04-13T08:12:13.513Z,80.11
2017-04-13T08:13:13.827Z,78.88
2017-04-13T08:14:13.807Z,80.4
2017-04-13T08:15:13.797Z,80.4
2017-04-13T08:16:13.783Z,89.9
2017-04-13T08:17:13.775Z,99.5
2017-04-13T08:18:13.766Z,99.99
2017-04-13T08:19:13.757Z,99.99
2017-04-13T08:20:13.745Z,99.99
2017-04-13T08:21:13.733Z,99.99
2017-04-13T08:22:13.416Z,99.99
2017-04-13T08:23:13.708Z,99.99
2017-04-13T08:24:13.698Z,99.99
2017-04-13T08:25:13.376Z,99.99
2017-04-13T08:26:13.364Z,99.99
2017-04-13T08:27:13.668Z,99.99
2017-04-13T08:28:13.342Z,98.12
2017-04-13T08:29:13.691Z,99.99
2017-04-13T08:30:13.634Z,99.99
2017-04-13T08:31:13.626Z,96.79
2017-04-13T08:32:13.613Z,93.84
2017-04-13T08:33:13.291Z,91.04
2017-04-13T08:34:13.594Z,99.99
2017-04-13T08:35:13.580Z,99.99
2017-04-13T08:36:13.573Z,99.99
2017-04-13T08:37:13.558Z,99.99
2017-04-13T08:38:13.549Z,99.99
2017-04-13T08:39:13.540Z,99.99
2017-04-13T08:40:13.529Z,99.99
2017-04-13T08:41:13.521Z,99.99
2017-04-13T08:42:13.197Z,99.99
2017-04-13T08:43:13.497Z,99.99
2017-04-13T08:44:13.493Z,99.99
2017-04-13T08:45:13.478Z,99.99
2017-04-13T08:46:13.469Z,99.99
2017-04-13T08:47:13.459Z,99.99
2017-04-13T08:48:13.449Z,99.99
2017-04-13T08:49:13.123Z,99.99
2017-04-13T08:50:13.429Z,99.99
2017-04-13T08:51:13.104Z,99.99
2017-04-13T08:52:13.410Z,99.99
2017-04-13T08:53:13.399Z,99.99
2017-04-13T08:54:13.390Z,99.99
2017-04-13T08:55:13.378Z,99.99
2017-04-13T08:56:13.370Z,99.99
2017-04-13T08:57:13.045Z,99.99
2017-04-13T08:58:13.347Z,99.99
2017-04-13T08:59:13.023Z,99.99
2017-04-13T09:00:13.012Z,99.99
2017-04-13T09:01:13.318Z,99.99
2017-04-13T09:02:12.993Z,99.99
2017-04-13T09:03:12.984Z,99.99
2017-04-13T09:04:12.972Z,99.99
2017-04-13T09:05:12.962Z,99.99
2017-04-13T09:06:12.952Z,99.99
2017-04-13T09:07:13.259Z,99.99
2017-04-13T09:08:13.249Z,99.99
2017-04-13T09:09:12.926Z,99.99
2017-04-13T09:10:13.224Z,99.99
2017-04-13T09:11:12.902Z,99.99
2017-04-13T09:12:12.893Z,99.99
2017-04-13T09:13:13.203Z,99.99
2017-04-13T09:14:12.874Z,99.99
2017-04-13T09:15:13.180Z,99.99
2017-04-13T09:16:13.171Z,99.99
2017-04-13T09:17:13.161Z,99.99
2017-04-13T09:18:13.152Z,99.99
2017-04-13T09:19:13.141Z,99.99
2017-04-13T09:20:13.133Z,99.99
2017-04-13T09:21:13.125Z,99.99
2017-04-13T09:22:13.117Z,99.99
2017-04-13T09:23:12.792Z,99.99
2017-04-13T09:24:13.103Z,99.99
2017-04-13T09:25:13.086Z,99.99
2017-04-13T09:26:13.079Z,99.99
2017-04-13T09:27:13.069Z,99.99
2017-04-13T09:28:13.075Z,99.99
2017-04-13T09:29:13.051Z,99.99
2017-04-13T09:30:13.045Z,99.99
2017-04-13T09:31:13.035Z,99.99
2017-04-13T09:32:13.026Z,99.99
2017-04-13T09:33:13.018Z,99.99
2017-04-13T09:34:13.007Z,99.99
2017-04-13T09:35:12.684Z,99.99
2017-04-13T09:36:12.676Z,99.99
2017-04-13T09:37:12.980Z,99.99
2017-04-13T09:38:12.972Z,99.99
2017-04-13T09:39:12.966Z,99.99
2017-04-13T09:40:12.956Z,99.99
2017-04-13T09:41:12.947Z,99.99
2017-04-13T09:42:12.940Z,99.99
2017-04-13T09:43:12.615Z,99.99
2017-04-13T09:44:12.608Z,99.6
2017-04-13T09:45:12.598Z,99.99
2017-04-13T09:46:12.905Z,95.89
2017-04-13T09:47:12.898Z,93.27
2017-04-13T09:48:12.889Z,91.13
2017-04-13T09:49:12.567Z,93.22
2017-04-13T09:50:12.563Z,98.08
2017-04-13T09:51:12.554Z,98.36
2017-04-13T09:52:12.541Z,96.46
2017-04-13T09:53:12.535Z,91.84
2017-04-13T09:54:12.525Z,90.12
2017-04-13T09:55:12.518Z,93.17
2017-04-13T09:56:12.825Z,91.17
2017-04-13T09:57:12.817Z,87.93
2017-04-13T09:58:12.810Z,86.98
2017-04-13T09:59:12.802Z,87.07
2017-04-13T10:00:12.794Z,89.07
2017-04-13T10:01:12.474Z,88.79
2017-04-13T10:02:12.466Z,84.31
2017-04-13T10:03:12.770Z,88.51
2017-04-13T10:04:12.448Z,97.36
2017-04-13T10:05:12.754Z,96.12
2017-04-13T10:06:12.433Z,84.31
2017-04-13T10:07:12.429Z,85.41
2017-04-13T10:08:12.736Z,76.64
2017-04-13T10:09:12.722Z,72.25
2017-04-13T10:10:12.403Z,73.68
2017-04-13T10:11:12.711Z,69.48
2017-04-13T10:12:12.702Z,65.58
2017-04-13T10:13:12.387Z,67.58
2017-04-13T10:14:12.690Z,69.39
2017-04-13T10:15:12.680Z,68.63
2017-04-13T10:16:12.674Z,67.58
2017-04-13T10:17:12.665Z,70.06
2017-04-13T10:18:12.345Z,71.68
2017-04-13T10:19:12.340Z,71.01
2017-04-13T10:20:12.329Z,69.29
2017-04-13T10:21:12.322Z,65.86
2017-04-13T10:22:12.315Z,64.62
2017-04-13T10:23:12.314Z,61.48
2017-04-13T10:24:12.616Z,59.95
2017-04-13T10:25:12.294Z,58.81
2017-04-13T10:26:12.286Z,61.29
2017-04-13T10:27:12.280Z,62.62
2017-04-13T10:28:12.272Z,67
2017-04-13T10:29:12.581Z,70.34
2017-04-13T10:30:12.572Z,70.34
2017-04-13T10:31:12.568Z,66.53
2017-04-13T10:32:12.557Z,67.48
2017-04-13T10:33:12.551Z,64.15
2017-04-13T10:34:12.544Z,63.86
2017-04-13T10:35:12.537Z,63.96
2017-04-13T10:36:12.531Z,65.07
2017-04-13T10:37:12.529Z,67.48
2017-04-13T10:38:12.517Z,68.91
2017-04-13T10:39:12.508Z,69.48
2017-04-13T10:40:12.503Z,68.91
2017-04-13T10:41:12.500Z,67.48
2017-04-13T10:42:12.487Z,68.53
2017-04-13T10:43:12.483Z,67.77
2017-04-13T10:44:12.474Z,65.29
2017-04-13T10:45:12.467Z,64.15
2017-04-13T10:46:12.145Z,66.44
2017-04-13T10:47:12.453Z,67.2
2017-04-13T10:48:12.448Z,66.53
2017-04-13T10:49:12.439Z,66.21
2017-04-13T10:50:12.120Z,68.12
2017-04-13T10:51:12.112Z,66.78
2017-04-13T10:52:12.424Z,66.24
2017-04-13T10:53:12.410Z,66.34
2017-04-13T10:54:12.404Z,66.15
2017-04-13T10:55:12.396Z,66.24
2017-04-13T10:56:12.391Z,66.91
2017-04-13T10:57:12.382Z,69.48
2017-04-13T10:58:12.063Z,70.53
2017-04-13T10:59:12.371Z,70.76
2017-04-13T11:00:12.048Z,66.38
2017-04-13T11:01:12.355Z,62.94
2017-04-13T11:02:12.351Z,65.33
2017-04-13T11:03:12.026Z,66.18
2017-04-13T11:04:12.335Z,64.31
2017-04-13T11:05:12.328Z,62.84
2017-04-13T11:06:12.321Z,62.08
2017-04-13T11:07:12.316Z,61.22
2017-04-13T11:08:11.995Z,62.08
2017-04-13T11:09:12.303Z,61.8
2017-04-13T11:10:12.297Z,63.23
2017-04-13T11:11:12.292Z,63.8
2017-04-13T11:12:11.967Z,60.46
2017-04-13T11:13:11.961Z,59.7
2017-04-13T11:14:12.268Z,62.08
2017-04-13T11:15:12.261Z,61.51
2017-04-13T11:16:11.941Z,60.36
2017-04-13T11:17:12.250Z,58.26
2017-04-13T11:18:12.246Z,58.17
2017-04-13T11:19:11.922Z,59.89
2017-04-13T11:20:11.917Z,59.41
2017-04-13T11:21:11.937Z,57.92
2017-04-13T11:22:12.221Z,57.24
2017-04-13T11:23:12.221Z,55.34
2017-04-13T11:24:11.895Z,53.81
2017-04-13T11:25:12.200Z,55.69
2017-04-13T11:26:12.199Z,56.07
2017-04-13T11:27:12.189Z,55.41
2017-04-13T11:28:12.179Z,53.02
2017-04-13T11:29:12.174Z,53.31
2017-04-13T11:30:12.165Z,54.64
2017-04-13T11:31:12.159Z,56.55
2017-04-13T11:32:12.151Z,59.03
2017-04-13T11:33:12.147Z,58.48
2017-04-13T11:34:11.824Z,58.2
2017-04-13T11:35:12.134Z,61.44
2017-04-13T11:36:12.126Z,57.65
2017-04-13T11:37:12.122Z,53.36
2017-04-13T11:38:12.114Z,53.84
2017-04-13T11:39:12.109Z,54.5
2017-04-13T11:40:12.103Z,46.7
2017-04-13T11:41:12.095Z,45.06
2017-04-13T11:42:12.090Z,48.11
2017-04-13T11:43:11.769Z,47.94
2017-04-13T11:44:12.078Z,49.73
2017-04-13T11:45:11.758Z,45.46
2017-04-13T11:46:12.068Z,44.02
2017-04-13T11:47:11.747Z,44.67
2017-04-13T11:48:12.057Z,42.38
2017-04-13T11:49:12.050Z,43.82
2017-04-13T11:50:11.731Z,45.25
2017-04-13T11:51:12.051Z,46.66
2017-04-13T11:52:12.040Z,47.32
2017-04-13T11:53:12.028Z,45.42
2017-04-13T11:54:11.708Z,42.84
2017-04-13T11:55:12.016Z,41.79
2017-04-13T11:56:11.695Z,45.89
2017-04-13T11:57:12.008Z,45.32
2017-04-13T11:58:11.996Z,45.01
2017-04-13T11:59:11.992Z,47.42
2017-04-13T12:00:11.989Z,45.97
2017-04-13T12:01:11.668Z,46.18
2017-04-13T12:02:11.975Z,47.89
2017-04-13T12:03:11.968Z,45.32
2017-04-13T12:04:11.963Z,44.65
2017-04-13T12:05:11.956Z,48.28
2017-04-13T12:06:11.948Z,47.52
2017-04-13T12:07:11.628Z,45.32
2017-04-13T12:08:11.935Z,44.37
2017-04-13T12:09:11.615Z,45.42
2017-04-13T12:10:11.927Z,45.51
2017-04-13T12:11:11.921Z,45.61
2017-04-13T12:12:11.911Z,44.74
2017-04-13T12:13:11.593Z,45.13
2017-04-13T12:14:11.593Z,44.17
2017-04-13T12:15:11.894Z,43.6
2017-04-13T12:16:11.610Z,43.7
2017-04-13T12:17:11.889Z,42.46
2017-04-13T12:18:11.565Z,42.93
2017-04-13T12:19:11.570Z,43.7
2017-04-13T12:20:11.622Z,42.93
2017-04-13T12:21:11.861Z,42.84
2017-04-13T12:22:11.551Z,43.89
2017-04-13T12:23:11.845Z,44.94
2017-04-13T12:24:11.843Z,45.79
2017-04-13T12:25:11.519Z,43.89
2017-04-13T12:26:11.829Z,44.46
2017-04-13T12:27:11.509Z,43.03
2017-04-13T12:28:11.817Z,43.51
2017-04-13T12:29:11.809Z,43.79
2017-04-13T12:30:11.491Z,41.31
2017-04-13T12:31:11.797Z,42.93
2017-04-13T12:32:11.479Z,44.74
2017-04-13T12:33:11.471Z,45.03
2017-04-13T12:34:11.469Z,43.41
2017-04-13T12:35:11.775Z,42.36
2017-04-13T12:36:11.454Z,43.51
2017-04-13T12:37:11.763Z,44.84
2017-04-13T12:38:11.757Z,44.65
2017-04-13T12:39:11.752Z,45.03
2017-04-13T12:40:11.430Z,44.84
2017-04-13T12:41:11.425Z,43.03
2017-04-13T12:42:11.418Z,43.15
2017-04-13T12:43:11.726Z,43.7
2017-04-13T12:44:11.719Z,43.6
2017-04-13T12:45:11.713Z,46.66
2017-04-13T12:46:11.706Z,47.06
2017-04-13T12:47:11.701Z,43.62
2017-04-13T12:48:11.698Z,41.43
2017-04-13T12:49:11.690Z,42.29
2017-04-13T12:50:11.370Z,44.96
2017-04-13T12:51:11.723Z,43.43
2017-04-13T12:52:11.675Z,43.33
2017-04-13T12:53:11.665Z,43.15
2017-04-13T12:54:11.348Z,44.1
2017-04-13T12:55:11.342Z,44.96